createdAt,value
2019-05-23T00:01:57.743Z,152773.19
2019-05-23T00:04:44.243Z,152765.28
2019-05-23T00:07:17.240Z,152760.05
2019-05-23T00:09:47.307Z,152737.72
2019-05-23T00:12:35.573Z,152746.92
2019-05-23T00:15:08.912Z,152725.84
2019-05-23T00:17:39.300Z,152737.72
2019-05-23T00:20:10.434Z,152736.36
2019-05-23T00:22:39.390Z,152715.31
2019-05-23T00:25:10.281Z,152719.30
2019-05-23T00:27:40.857Z,152710.09
2019-05-23T00:30:13.241Z,152714.02
2019-05-23T00:32:49.570Z,152712.70
2019-05-23T00:38:13.516Z,152704.81
2019-05-23T00:40:43.618Z,152691.69
2019-05-23T00:43:12.992Z,152689.06
2019-05-23T00:45:43.321Z,152696.95
2019-05-23T00:48:12.595Z,152702.19
2019-05-23T00:50:43.383Z,152689.06
2019-05-23T00:53:13.456Z,152669.34
2019-05-23T00:55:42.099Z,152677.23
2019-05-23T00:58:12.058Z,152671.97
2019-05-23T01:00:40.694Z,152652.25
2019-05-23T01:03:11.593Z,152653.55
2019-05-23T01:05:41.801Z,152657.52
2019-05-23T01:08:10.914Z,152660.14
2019-05-23T01:10:39.657Z,152656.22
2019-05-23T01:13:10.645Z,152668.03
2019-05-23T01:15:41.889Z,152673.27
2019-05-23T01:18:10.680Z,152654.91
2019-05-23T01:20:47.012Z,152629.91
2019-05-23T01:23:17.172Z,152645.70
2019-05-23T01:25:47.009Z,152631.22
2019-05-23T01:28:15.732Z,152635.19
2019-05-23T01:30:49.025Z,152612.86
2019-05-23T01:33:18.574Z,152631.22
2019-05-23T01:35:48.388Z,152636.50
2019-05-23T01:38:18.858Z,152628.59
2019-05-23T01:40:47.600Z,152610.19
2019-05-23T01:43:18.027Z,152610.19
2019-05-23T01:45:46.687Z,152581.28
2019-05-23T01:48:15.915Z,152583.89
2019-05-23T01:50:44.476Z,152573.38
2019-05-23T01:53:13.517Z,152568.09
2019-05-23T01:55:42.534Z,152539.19
2019-05-23T01:58:11.439Z,152531.34
2019-05-23T02:00:40.195Z,152545.78
2019-05-23T02:03:09.181Z,152544.47
2019-05-23T02:05:38.426Z,152531.34
2019-05-23T02:08:09.223Z,152520.84
2019-05-23T02:10:38.230Z,152502.44
2019-05-23T02:13:09.307Z,152515.56
2019-05-23T02:15:37.758Z,152512.94
2019-05-23T02:18:06.479Z,152489.31
2019-05-23T02:20:35.355Z,152493.23
2019-05-23T02:23:04.679Z,152470.91
2019-05-23T02:25:35.636Z,152473.53
2019-05-23T02:28:05.045Z,152455.12
2019-05-23T02:30:35.931Z,152457.80
2019-05-23T02:33:05.774Z,152480.13
2019-05-23T02:35:35.498Z,152449.91
2019-05-23T02:38:06.249Z,152455.12
2019-05-23T02:40:40.252Z,152439.41
2019-05-23T02:43:17.056Z,152442.00
2019-05-23T02:45:53.323Z,152438.09
2019-05-23T02:48:24.315Z,152431.50
2019-05-23T02:51:07.265Z,152415.78
2019-05-23T02:53:37.535Z,152421.00
2019-05-23T02:59:35.398Z,152430.20
2019-05-23T03:02:40.246Z,152415.78
2019-05-23T03:05:15.431Z,152419.69
2019-05-23T03:07:45.297Z,152410.50
2019-05-23T03:10:16.036Z,152422.31
2019-05-23T03:12:46.526Z,152392.09
2019-05-23T03:15:17.236Z,152386.87
2019-05-23T03:17:48.960Z,152368.48
2019-05-23T03:20:19.399Z,152360.59
2019-05-23T03:22:51.012Z,152350.09
2019-05-23T03:25:39.398Z,152321.19
2019-05-23T03:28:12.650Z,152333.06
2019-05-23T03:30:48.430Z,152310.69
2019-05-23T03:33:18.629Z,152308.08
2019-05-23T03:35:51.664Z,152308.08
2019-05-23T03:38:20.916Z,152315.97
2019-05-23T03:40:49.766Z,152294.97
2019-05-23T03:43:19.174Z,152276.58
2019-05-23T03:45:52.642Z,152285.78
2019-05-23T03:48:23.879Z,152281.86
2019-05-23T03:50:55.269Z,152280.50
2019-05-23T03:53:25.655Z,152263.47
2019-05-23T03:55:54.329Z,152259.50
2019-05-23T03:58:25.539Z,152260.86
2019-05-23T04:00:54.897Z,152243.78
2019-05-23T04:03:27.308Z,152267.39
2019-05-23T04:05:57.088Z,152199.17
2019-05-23T04:08:27.045Z,152212.28
2019-05-23T04:10:56.385Z,152208.31
2019-05-23T04:13:25.533Z,152216.20
2019-05-23T04:15:54.291Z,152210.97
2019-05-23T04:18:22.880Z,152210.97
2019-05-23T04:20:51.959Z,152196.52
2019-05-23T04:23:21.031Z,152212.28
2019-05-23T04:25:50.157Z,152176.78
2019-05-23T04:28:19.079Z,152184.66
2019-05-23T04:30:47.981Z,152171.56
2019-05-23T04:33:17.111Z,152182.05
2019-05-23T04:35:45.754Z,152142.67
2019-05-23T04:38:15.639Z,152143.98
2019-05-23T04:40:44.454Z,152150.56
2019-05-23T04:43:13.048Z,152150.56
2019-05-23T04:45:42.471Z,152185.97
2019-05-23T04:48:11.719Z,152182.05
2019-05-23T04:50:41.357Z,152195.22
2019-05-23T04:53:09.912Z,152204.41
2019-05-23T04:55:39.690Z,152213.59
2019-05-23T04:58:09.000Z,152242.47
2019-05-23T05:00:38.233Z,152266.08
2019-05-23T05:03:08.632Z,152276.58
2019-05-23T05:05:37.821Z,152291.00
2019-05-23T05:08:08.584Z,152309.39
2019-05-23T05:10:37.445Z,152321.19
2019-05-23T05:13:06.333Z,152347.47
2019-05-23T05:15:35.546Z,152363.20
2019-05-23T05:18:04.623Z,152394.72
2019-05-23T05:20:33.306Z,152414.42
2019-05-23T05:23:02.007Z,152440.70
2019-05-23T05:25:31.322Z,152460.41
2019-05-23T05:28:00.812Z,152481.42
2019-05-23T05:30:29.733Z,152499.81
2019-05-23T05:32:58.347Z,152540.55
2019-05-23T05:35:27.399Z,152556.28
2019-05-23T05:37:56.548Z,152582.59
2019-05-23T05:40:26.080Z,152629.91
2019-05-23T05:42:55.536Z,152632.53
2019-05-23T05:45:24.199Z,152673.27
2019-05-23T05:47:52.875Z,152731.13
2019-05-23T05:50:23.614Z,152769.25
2019-05-23T05:52:52.197Z,152821.84
2019-05-23T05:55:21.225Z,152859.94
2019-05-23T05:57:49.907Z,152895.47
2019-05-23T06:00:21.317Z,152965.25
2019-05-23T06:03:03.531Z,153002.06
2019-05-23T06:08:13.955Z,153112.61
2019-05-23T06:10:43.491Z,153208.69
2019-05-23T06:13:12.667Z,153257.41
2019-05-23T06:15:41.657Z,153325.91
2019-05-23T06:18:10.950Z,153383.88
2019-05-23T06:20:43.271Z,153476.09
2019-05-23T06:23:15.652Z,153532.73
2019-05-23T06:25:44.531Z,153560.42
2019-05-23T06:28:14.807Z,153713.41
2019-05-23T06:30:44.108Z,153783.25
2019-05-23T06:33:22.530Z,153909.97
2019-05-23T06:35:44.160Z,154003.66
2019-05-23T06:38:12.735Z,154044.56
2019-05-23T06:40:41.803Z,154084.13
2019-05-23T06:43:12.154Z,154173.97
2019-05-23T06:45:42.716Z,154030.02
2019-05-23T06:48:14.350Z,154176.59
2019-05-23T06:50:42.924Z,154209.59
2019-05-23T06:53:11.810Z,154225.45
2019-05-23T06:55:40.475Z,154299.41
2019-05-23T06:58:13.211Z,154442.16
2019-05-23T07:00:42.986Z,154505.58
2019-05-23T07:03:12.575Z,154550.50
2019-05-23T07:05:42.071Z,154565.06
2019-05-23T07:08:10.645Z,154662.94
2019-05-23T07:10:43.433Z,154555.81
2019-05-23T07:13:12.873Z,154717.13
2019-05-23T07:15:42.255Z,154664.25
2019-05-23T07:18:11.202Z,154936.77
2019-05-23T07:20:39.847Z,154815.03
2019-05-23T07:23:11.453Z,154818.98
2019-05-23T07:25:40.050Z,154793.88
2019-05-23T07:28:08.650Z,154759.45
2019-05-23T07:30:37.538Z,154936.77
2019-05-23T07:33:06.096Z,155008.23
2019-05-23T07:35:35.067Z,154980.42
2019-05-23T07:38:03.773Z,154916.92
2019-05-23T07:40:32.724Z,154984.44
2019-05-23T07:43:01.453Z,154961.94
2019-05-23T07:45:31.739Z,155093.00
2019-05-23T07:48:00.563Z,155399.00
2019-05-23T07:50:29.124Z,155326.14
2019-05-23T07:52:59.668Z,155267.84
2019-05-23T07:58:19.316Z,155114.17
2019-05-23T08:00:52.407Z,155156.53
2019-05-23T08:03:22.556Z,155140.67
2019-05-23T08:05:51.132Z,155249.23
2019-05-23T08:08:19.978Z,155286.41
2019-05-23T08:10:48.577Z,155310.22
2019-05-23T08:13:17.416Z,155104.91
2019-05-23T08:15:46.783Z,155312.86
2019-05-23T08:18:15.904Z,155298.31
2019-05-23T08:20:46.285Z,155004.28
2019-05-23T08:23:16.313Z,155012.19
2019-05-23T08:25:45.100Z,155116.86
2019-05-23T08:28:13.660Z,155063.86
2019-05-23T08:30:42.504Z,155143.31
2019-05-23T08:33:12.671Z,155179.03
2019-05-23T08:35:41.320Z,155295.67
2019-05-23T08:38:10.304Z,155319.50
2019-05-23T08:40:39.800Z,155452.00
2019-05-23T08:43:09.081Z,155408.25
2019-05-23T08:45:37.721Z,155604.45
2019-05-23T08:48:06.523Z,155707.92
2019-05-23T08:50:35.174Z,155719.84
2019-05-23T08:53:04.064Z,155741.06
2019-05-23T08:55:33.396Z,155725.19
2019-05-23T08:58:02.801Z,155550.11
2019-05-23T09:00:33.082Z,155867.13
2019-05-23T09:03:03.908Z,155879.11
2019-05-23T09:05:37.103Z,155898.97
2019-05-23T09:08:08.513Z,155787.52
2019-05-23T09:10:39.230Z,155825.95
2019-05-23T09:13:08.707Z,155844.58
2019-05-23T09:15:37.530Z,155792.80
2019-05-23T09:18:07.177Z,155734.47
2019-05-23T09:20:36.401Z,155808.73
2019-05-23T09:23:05.482Z,156007.80
2019-05-23T09:25:34.139Z,155851.23
2019-05-23T09:28:03.621Z,155684.06
2019-05-23T09:30:32.562Z,155833.92
2019-05-23T09:33:01.787Z,156015.77
2019-05-23T09:35:30.560Z,155946.75
2019-05-23T09:37:59.199Z,155757.00
2019-05-23T09:40:27.735Z,155906.94
2019-05-23T09:42:56.296Z,155938.78
2019-05-23T09:45:25.239Z,156034.36
2019-05-23T09:47:53.757Z,155924.20
2019-05-23T09:50:24.017Z,155904.28
2019-05-23T09:52:52.873Z,156064.89
2019-05-23T09:55:22.094Z,155938.78
2019-05-23T09:57:50.703Z,156353.11
2019-05-23T10:00:21.594Z,156252.16
2019-05-23T10:02:50.724Z,155808.73
2019-05-23T10:05:19.245Z,156041.03
2019-05-23T10:07:47.958Z,156047.67
2019-05-23T10:10:17.760Z,156225.63
2019-05-23T10:12:46.589Z,156180.39
2019-05-23T10:15:33.718Z,156382.39
2019-05-23T10:18:02.706Z,156326.52
2019-05-23T10:20:33.801Z,156192.33
2019-05-23T10:23:03.272Z,156280.06
2019-05-23T10:25:33.367Z,156293.33
2019-05-23T10:28:08.429Z,156536.48
2019-05-23T10:30:37.280Z,156165.81
2019-05-23T10:33:11.441Z,155906.94
2019-05-23T10:35:37.386Z,156229.59
2019-05-23T10:38:06.032Z,156098.06
2019-05-23T10:40:34.979Z,155734.47
2019-05-23T10:43:03.847Z,155754.38
2019-05-23T10:45:32.696Z,155644.23
2019-05-23T10:48:01.624Z,155498.42
2019-05-23T10:50:43.546Z,155682.75
2019-05-23T10:53:00.443Z,155392.37
2019-05-23T10:55:29.057Z,155191.00
2019-05-23T10:57:57.652Z,155185.69
2019-05-23T11:00:27.929Z,155025.47
2019-05-23T11:02:56.781Z,155100.95
2019-05-23T11:05:25.813Z,155083.72
2019-05-23T11:07:54.862Z,155114.17
2019-05-23T11:10:24.003Z,155054.64
2019-05-23T11:12:54.233Z,154971.22
2019-05-23T11:15:22.741Z,154885.16
2019-05-23T11:17:53.613Z,154905.02
2019-05-23T11:20:22.159Z,154862.69
2019-05-23T11:22:50.987Z,154875.89
2019-05-23T11:25:20.625Z,154852.09
2019-05-23T11:27:49.204Z,154833.56
2019-05-23T11:30:34.384Z,154815.03
2019-05-23T11:33:02.917Z,154817.67
2019-05-23T11:35:31.449Z,154715.81
2019-05-23T11:38:01.225Z,154762.08
2019-05-23T11:40:33.540Z,154754.19
2019-05-23T11:43:00.189Z,154717.13
2019-05-23T11:45:30.641Z,154615.31
2019-05-23T11:47:59.304Z,154709.19
2019-05-23T11:50:28.130Z,154767.41
2019-05-23T11:52:57.083Z,154743.61
2019-05-23T11:55:26.012Z,154678.77
2019-05-23T11:57:54.827Z,154595.42
2019-05-23T12:00:54.033Z,154598.11
2019-05-23T12:03:22.588Z,154590.16
2019-05-23T12:05:51.738Z,154557.12
2019-05-23T12:08:20.516Z,154584.84
2019-05-23T12:10:49.676Z,154587.53
2019-05-23T12:13:18.443Z,154562.39
2019-05-23T12:15:49.775Z,154492.38
2019-05-23T12:18:18.499Z,154518.78
2019-05-23T12:20:47.130Z,154541.25
2019-05-23T12:23:15.636Z,154539.94
2019-05-23T12:25:44.151Z,154558.44
2019-05-23T12:28:13.345Z,154569.02
2019-05-23T12:30:42.202Z,154543.92
2019-05-23T12:33:10.826Z,154531.98
2019-05-23T12:35:39.444Z,154510.84
2019-05-23T12:38:08.369Z,154510.84
2019-05-23T12:40:36.924Z,154529.36
2019-05-23T12:43:05.525Z,154545.23
2019-05-23T12:45:34.118Z,154561.08
2019-05-23T12:48:07.495Z,154596.80
2019-05-23T12:50:40.685Z,154612.69
2019-05-23T12:53:11.336Z,154561.08
2019-05-23T12:55:39.985Z,154541.25
2019-05-23T12:58:08.611Z,154535.98
2019-05-23T13:00:42.093Z,154518.78
2019-05-23T13:03:13.247Z,154545.23
2019-05-23T13:05:42.840Z,154516.16
2019-05-23T13:08:11.627Z,154495.00
2019-05-23T13:10:40.499Z,154481.81
2019-05-23T13:13:10.025Z,154495.00
2019-05-23T13:15:38.633Z,154501.59
2019-05-23T13:18:07.505Z,154504.27
2019-05-23T13:20:37.756Z,154517.47
2019-05-23T13:23:07.145Z,154500.27
2019-05-23T13:25:36.245Z,154495.00
2019-05-23T13:28:06.044Z,154534.66
2019-05-23T13:30:34.677Z,154489.69
2019-05-23T13:33:04.140Z,154489.69
2019-05-23T13:35:33.794Z,154514.84
2019-05-23T13:38:02.412Z,154497.64
2019-05-23T13:40:31.271Z,154508.22
2019-05-23T13:42:59.908Z,154510.84
2019-05-23T13:45:28.500Z,154534.66
2019-05-23T13:47:57.075Z,154526.72
2019-05-23T13:50:26.982Z,154496.31
2019-05-23T13:52:55.533Z,154529.36
2019-05-23T13:55:24.483Z,154506.89
2019-05-23T13:57:53.052Z,154518.78
2019-05-23T14:00:22.794Z,154513.52
2019-05-23T14:02:51.527Z,154508.22
2019-05-23T14:05:20.964Z,154518.78
2019-05-23T14:07:49.539Z,154513.52
2019-05-23T14:10:18.496Z,154529.36
2019-05-23T14:12:47.588Z,154535.98
2019-05-23T14:15:21.805Z,154545.23
2019-05-23T14:17:50.361Z,154575.64
2019-05-23T14:20:21.311Z,154620.63
2019-05-23T14:22:51.686Z,154603.38
2019-05-23T14:25:20.652Z,154629.89
2019-05-23T14:27:50.950Z,154644.41
2019-05-23T14:30:21.945Z,154653.67
2019-05-23T14:32:58.002Z,154645.72
2019-05-23T14:35:30.986Z,154635.16
2019-05-23T14:38:01.638Z,154645.72
2019-05-23T14:40:33.467Z,154658.98
2019-05-23T14:43:06.759Z,154670.88
2019-05-23T14:45:55.112Z,154689.41
2019-05-23T14:48:25.408Z,154709.19
2019-05-23T14:50:58.317Z,154719.77
2019-05-23T14:53:29.080Z,154719.77
2019-05-23T14:56:00.237Z,154729.03
2019-05-23T14:58:29.265Z,154701.30
2019-05-23T15:00:59.997Z,154656.30
2019-05-23T15:03:29.158Z,154677.45
2019-05-23T15:05:58.191Z,154666.87
2019-05-23T15:08:27.283Z,154629.89
2019-05-23T15:10:55.898Z,154604.73
2019-05-23T15:13:24.443Z,154574.28
2019-05-23T15:15:52.969Z,154559.75
2019-05-23T15:18:21.472Z,154584.84
2019-05-23T15:21:11.961Z,154559.75
2019-05-23T15:23:40.605Z,154531.98
2019-05-23T15:26:22.591Z,154508.22
2019-05-23T15:28:39.821Z,154500.27
2019-05-23T15:31:08.788Z,154528.03
2019-05-23T15:33:37.472Z,154514.84
2019-05-23T15:36:06.526Z,154502.95
2019-05-23T15:38:35.066Z,154512.16
2019-05-23T15:41:03.970Z,154517.47
2019-05-23T15:43:32.592Z,154529.36
2019-05-23T15:46:01.116Z,154524.09
2019-05-23T15:48:29.767Z,154504.27
2019-05-23T15:50:58.275Z,154479.12
2019-05-23T15:53:37.707Z,154497.64
2019-05-23T15:56:28.446Z,154500.27
2019-05-23T15:59:12.596Z,154521.41
2019-05-23T16:01:55.004Z,154489.69
2019-05-23T16:04:25.012Z,154488.38
2019-05-23T16:06:54.730Z,154472.55
2019-05-23T16:09:29.906Z,154476.50
2019-05-23T16:11:54.446Z,154487.06
2019-05-23T16:14:23.716Z,154498.95
2019-05-23T16:16:56.207Z,154484.44
2019-05-23T16:19:23.408Z,154504.27
2019-05-23T16:21:52.308Z,154504.27
2019-05-23T16:24:21.371Z,154501.59
2019-05-23T16:26:50.091Z,154489.69
2019-05-23T16:29:19.448Z,154495.00
2019-05-23T16:31:48.163Z,154497.64
2019-05-23T16:34:16.780Z,154508.22
2019-05-23T16:36:45.349Z,154528.03
2019-05-23T16:39:14.085Z,154524.09
2019-05-23T16:41:42.578Z,154529.36
2019-05-23T16:44:11.206Z,154520.09
2019-05-23T16:46:40.058Z,154524.09
2019-05-23T16:49:08.698Z,154528.03
2019-05-23T16:51:37.451Z,154518.78
2019-05-23T16:54:06.620Z,154513.52
2019-05-23T16:56:37.114Z,154506.89
2019-05-23T16:59:22.568Z,154502.95
2019-05-23T17:02:04.961Z,154495.00
2019-05-23T17:04:28.173Z,154493.69
2019-05-23T17:06:58.454Z,154491.02
2019-05-23T17:09:32.263Z,154477.81
2019-05-23T17:12:12.323Z,154469.88
2019-05-23T17:14:55.089Z,154461.98
2019-05-23T17:17:57.009Z,154457.98
2019-05-23T17:20:19.764Z,154457.98
2019-05-23T17:23:03.221Z,154457.98
2019-05-23T17:25:39.147Z,154457.98
2019-05-23T17:28:12.175Z,154434.22
2019-05-23T17:30:59.013Z,154421.02
2019-05-23T17:33:29.279Z,154419.70
2019-05-23T17:35:57.794Z,154415.70
2019-05-23T17:38:26.495Z,154426.28
2019-05-23T17:40:55.443Z,154421.02
2019-05-23T17:43:24.207Z,154398.56
2019-05-23T17:45:52.779Z,154410.44
2019-05-23T17:48:21.255Z,154399.87
2019-05-23T17:50:49.754Z,154395.87
2019-05-23T17:53:18.580Z,154397.19
2019-05-23T17:55:47.179Z,154402.50
2019-05-23T17:58:17.506Z,154384.00
2019-05-23T18:00:47.679Z,154378.73
2019-05-23T18:03:16.645Z,154378.73
2019-05-23T18:05:45.310Z,154372.11
2019-05-23T18:08:15.176Z,154378.73
2019-05-23T18:10:46.300Z,154354.87
2019-05-23T18:13:15.341Z,154340.36
2019-05-23T18:15:44.538Z,154324.48
2019-05-23T18:18:13.570Z,154329.80
2019-05-23T18:20:43.038Z,154331.11
2019-05-23T18:23:11.771Z,154331.11
2019-05-23T18:25:41.492Z,154331.11
2019-05-23T18:28:12.304Z,154324.48
2019-05-23T18:30:56.785Z,154309.97
2019-05-23T18:33:25.612Z,154302.05
2019-05-23T18:35:56.279Z,154299.41
2019-05-23T18:38:25.276Z,154302.05
2019-05-23T18:41:04.017Z,154278.28
2019-05-23T18:43:26.027Z,154270.34
2019-05-23T18:45:56.126Z,154280.91
2019-05-23T18:48:24.659Z,154276.97
2019-05-23T18:50:53.390Z,154262.47
2019-05-23T18:53:22.764Z,154265.09
2019-05-23T18:55:51.817Z,154241.28
2019-05-23T18:58:20.678Z,154239.97
2019-05-23T19:00:57.099Z,154234.72
2019-05-23T19:03:26.132Z,154220.16
2019-05-23T19:05:54.794Z,154217.53
2019-05-23T19:08:23.466Z,154222.83
2019-05-23T19:10:52.558Z,154209.59
2019-05-23T19:13:21.118Z,154200.39
2019-05-23T19:15:50.120Z,154185.84
2019-05-23T19:18:18.967Z,154170.02
2019-05-23T19:20:54.462Z,154160.78
2019-05-23T19:23:21.998Z,154138.34
2019-05-23T19:25:50.486Z,154148.89
2019-05-23T19:28:20.420Z,154131.72
2019-05-23T19:30:49.091Z,154135.66
2019-05-23T19:33:18.196Z,154119.80
2019-05-23T19:35:47.666Z,154093.38
2019-05-23T19:38:18.634Z,154094.69
2019-05-23T19:40:47.459Z,154073.56
2019-05-23T19:43:17.760Z,154067.00
2019-05-23T19:45:47.113Z,154065.69
2019-05-23T19:48:15.912Z,154052.45
2019-05-23T19:50:44.418Z,154061.69
2019-05-23T19:53:13.210Z,154059.06
2019-05-23T19:55:42.120Z,154053.77
2019-05-23T19:58:11.221Z,154032.64
2019-05-23T20:00:40.882Z,154023.45
2019-05-23T20:03:09.818Z,154008.91
2019-05-23T20:05:58.288Z,154011.53
2019-05-23T20:08:26.772Z,154024.77
2019-05-23T20:10:55.463Z,154003.66
2019-05-23T20:13:24.760Z,154003.66
2019-05-23T20:15:53.405Z,153995.72
2019-05-23T20:18:22.200Z,153990.42
2019-05-23T20:20:51.434Z,153977.23
2019-05-23T20:23:21.265Z,153989.11
2019-05-23T20:25:49.986Z,153968.00
2019-05-23T20:28:18.634Z,153974.61
2019-05-23T20:30:54.093Z,153961.44
2019-05-23T20:33:22.788Z,153961.44
2019-05-23T20:35:51.498Z,153953.50
2019-05-23T20:38:20.105Z,153940.31
2019-05-23T20:40:54.932Z,153932.39
2019-05-23T20:43:23.481Z,153940.31
2019-05-23T20:45:51.965Z,153913.91
2019-05-23T20:48:20.874Z,153886.19
2019-05-23T20:50:49.530Z,153895.44
2019-05-23T20:53:18.082Z,153866.41
2019-05-23T20:55:46.705Z,153855.80
2019-05-23T20:58:16.071Z,153845.25
2019-05-23T21:00:46.389Z,153838.69
2019-05-23T21:03:14.894Z,153821.52
2019-05-23T21:05:43.385Z,153832.06
2019-05-23T21:08:12.021Z,153810.97
2019-05-23T21:10:46.340Z,153780.62
2019-05-23T21:13:15.050Z,153789.87
2019-05-23T21:15:43.871Z,153770.08
2019-05-23T21:18:13.078Z,153778.00
2019-05-23T21:20:42.027Z,153771.39
2019-05-23T21:23:10.671Z,153723.95
2019-05-23T21:25:40.897Z,153755.59
2019-05-23T21:28:10.132Z,153739.75
2019-05-23T21:30:38.645Z,153737.13
2019-05-23T21:33:07.254Z,153712.09
2019-05-23T21:35:35.842Z,153721.28
2019-05-23T21:38:04.532Z,153713.41
2019-05-23T21:40:36.120Z,153701.53
2019-05-23T21:43:05.472Z,153685.70
2019-05-23T21:45:34.621Z,153660.67
2019-05-23T21:48:03.509Z,153663.30
2019-05-23T21:50:32.259Z,153646.14
2019-05-23T21:53:00.770Z,153626.36
2019-05-23T21:55:43.242Z,153607.94
2019-05-23T21:58:13.693Z,153586.86
2019-05-23T22:01:07.959Z,153602.66
2019-05-23T22:03:54.394Z,153594.72
2019-05-23T22:06:28.663Z,153576.22
2019-05-23T22:08:57.593Z,153592.11
2019-05-23T22:11:26.442Z,153565.67
2019-05-23T22:13:54.953Z,153581.56
2019-05-23T22:16:23.992Z,153576.22
2019-05-23T22:18:52.636Z,153563.05
2019-05-23T22:21:21.753Z,153551.20
2019-05-23T22:23:50.487Z,153549.88
2019-05-23T22:26:19.253Z,153528.80
2019-05-23T22:28:48.506Z,153531.42
2019-05-23T22:31:17.364Z,153520.88
2019-05-23T22:36:43.637Z,153507.72
2019-05-23T22:39:12.275Z,153505.09
2019-05-23T22:41:40.793Z,153478.72
2019-05-23T22:44:09.549Z,153476.09
2019-05-23T22:46:38.797Z,153449.72
2019-05-23T22:49:07.511Z,153444.48
2019-05-23T22:51:36.045Z,153441.86
2019-05-23T22:54:04.757Z,153455.02
2019-05-23T22:56:33.255Z,153429.95
2019-05-23T22:59:01.734Z,153415.50
2019-05-23T23:01:30.919Z,153389.13
2019-05-23T23:03:59.468Z,153393.11
2019-05-23T23:06:28.811Z,153412.87
2019-05-23T23:08:57.472Z,153399.66
2019-05-23T23:11:25.962Z,153390.48
2019-05-23T23:13:54.483Z,153328.58
2019-05-23T23:16:22.954Z,153303.53
2019-05-23T23:18:52.183Z,153336.44
2019-05-23T23:21:20.677Z,153345.66
2019-05-23T23:23:49.195Z,153346.97
2019-05-23T23:26:17.808Z,153341.73
2019-05-23T23:28:46.302Z,153328.58
2019-05-23T23:31:14.915Z,153312.75
2019-05-23T23:33:43.494Z,153293.00
2019-05-23T23:36:11.980Z,153267.94
2019-05-23T23:38:40.463Z,153261.34
2019-05-23T23:41:09.007Z,153263.97
2019-05-23T23:43:37.526Z,153273.19
2019-05-23T23:46:24.067Z,153249.50
2019-05-23T23:52:02.278Z,153262.66
2019-05-23T23:54:48.763Z,153246.88
2019-05-23T23:57:35.638Z,153237.66
